Time;durP1;ratioP1;P1;durP2;ratioP2;P2;SDS_P1;SDS_P2;PMS_P1;PMS_P2;Temp;Humidity;BMP_temperature;BMP_pressure;BME280_temperature;BME280_humidity;BME280_pressure;Samples;Min_cycle;Max_cycle;Signal;HPM_P1;HPM_P2
2022/12/18 00:36:23;;;;;;;18.98;10.65;;;;;;;2.23;100.00;100282.93;1709042;81;21037;-66
2022/12/18 00:38:53;;;;;;;20.27;11.57;;;;;;;1.96;100.00;100289.42;1688265;83;22235;-65
2022/12/18 00:44:07;;;;;;;20.48;11.85;;;;;;;2.30;100.00;100302.84;1702764;83;21238;-67
2022/12/18 00:46:33;;;;;;;24.43;13.65;;;;;;;2.15;100.00;100299.38;1673428;83;21037;-66
2022/12/18 00:49:00;;;;;;;19.35;10.60;;;;;;;2.49;100.00;100300.23;1657699;85;21113;-66
2022/12/18 00:51:27;;;;;;;24.50;13.28;;;;;;;2.34;100.00;100301.09;1657045;86;21045;-66
2022/12/18 00:53:53;;;;;;;22.17;12.47;;;;;;;2.49;100.00;100305.42;1656910;85;21078;-67
2022/12/18 00:56:20;;;;;;;23.07;12.60;;;;;;;2.04;100.00;100302.83;1674205;85;21170;-66
2022/12/18 00:58:46;;;;;;;24.57;13.15;;;;;;;1.82;100.00;100313.64;1674077;85;21058;-67
2022/12/18 01:01:13;;;;;;;26.42;13.32;;;;;;;1.73;100.00;100311.47;1673768;85;21092;-67
2022/12/18 01:03:40;;;;;;;25.62;14.45;;;;;;;2.13;100.00;100307.16;1673907;84;21078;-66
2022/12/18 01:06:08;;;;;;;26.97;14.63;;;;;;;2.12;100.00;100309.34;1674260;84;21116;-66
2022/12/18 01:08:35;;;;;;;27.80;13.78;;;;;;;2.22;100.00;100324.05;1673886;85;21149;-65
2022/12/18 01:11:19;;;;;;;27.50;14.20;;;;;;;2.61;100.00;100324.90;1670138;84;21091;-66
2022/12/18 01:13:45;;;;;;;22.65;12.63;;;;;;;2.62;100.00;100329.25;1646765;87;21059;-67
2022/12/18 01:16:15;;;;;;;25.20;13.65;;;;;;;2.25;100.00;100326.64;1646864;87;21626;-67
2022/12/18 01:18:41;;;;;;;25.12;13.40;;;;;;;2.09;100.00;100340.50;1646783;86;21076;-67
2022/12/18 01:21:10;;;;;;;22.80;12.33;;;;;;;2.22;100.00;100334.45;1647373;86;21644;-68
2022/12/18 01:23:38;;;;;;;24.10;13.58;;;;;;;2.63;100.00;100334.87;1646801;87;21062;-66
2022/12/18 01:26:08;;;;;;;26.82;14.63;;;;;;;2.73;100.00;100331.37;1646925;86;21020;-68
2022/12/18 01:28:36;;;;;;;23.50;12.60;;;;;;;2.92;100.00;100349.13;1646625;87;21031;-65
2022/12/18 01:31:13;;;;;;;35.03;16.42;;;;;;;2.83;100.00;100353.05;1646898;87;21614;-66
2022/12/18 01:33:40;;;;;;;29.87;16.77;;;;;;;2.78;100.00;100361.27;1646843;86;21251;-67
2022/12/18 01:36:07;;;;;;;34.03;18.85;;;;;;;2.83;100.00;100367.77;1648311;85;21052;-66
2022/12/18 01:38:34;;;;;;;38.13;18.70;;;;;;;2.24;100.00;100370.41;1667816;86;21641;-66
2022/12/18 01:41:01;;;;;;;35.60;18.85;;;;;;;2.95;100.00;100367.77;1667723;86;21083;-66
2022/12/18 01:43:53;;;;;;;36.50;18.17;;;;;;;2.36;100.00;100377.34;1667720;86;21079;-64
2022/12/18 01:46:22;;;;;;;35.25;18.82;;;;;;;2.65;100.00;100379.94;1659608;86;21130;-67
2022/12/18 01:49:00;;;;;;;31.73;16.70;;;;;;;2.35;100.00;100381.22;1654553;86;21628;-65
2022/12/18 01:51:28;;;;;;;36.33;19.00;;;;;;;2.40;100.00;100376.92;1654830;86;21560;-65
2022/12/18 01:53:54;;;;;;;38.88;19.10;;;;;;;2.27;100.00;100378.19;1654777;85;21085;-65
2022/12/18 01:56:21;;;;;;;37.38;19.57;;;;;;;1.97;100.00;100371.66;1656352;86;21557;-65
2022/12/18 01:58:54;;;;;;;34.95;17.02;;;;;;;1.94;100.00;100375.56;1654723;86;21143;-66
2022/12/18 02:01:23;;;;;;;38.95;18.82;;;;;;;1.92;100.00;100386.37;1671149;85;21069;-65
2022/12/18 02:03:49;;;;;;;38.58;19.20;;;;;;;1.65;100.00;100387.58;1683312;85;21108;-67
2022/12/18 02:06:31;;;;;;;38.35;19.17;;;;;;;1.21;100.00;100392.16;1684088;85;21053;-66
2022/12/18 02:09:15;;;;;;;38.00;18.75;;;;;;;0.98;100.00;100392.02;1683870;85;21144;-66
2022/12/18 02:12:11;;;;;;;39.35;19.57;;;;;;;1.39;100.00;100395.28;1684138;85;21138;-66
2022/12/18 10:32:30;;;;;;;21.60;11.83;;;;;;;-0.89;100.00;101137.49;1817991;78;22660;-64
2022/12/18 10:34:57;;;;;;;22.98;11.10;;;;;;;-0.61;100.00;101139.05;1791367;80;21037;-64
2022/12/18 10:37:27;;;;;;;22.70;11.30;;;;;;;-0.56;100.00;101142.63;1791090;80;21135;-62
2022/12/18 10:40:13;;;;;;;19.32;10.23;;;;;;;-0.57;100.00;101149.08;1791031;80;20977;-63
2022/12/18 10:42:41;;;;;;;21.33;11.15;;;;;;;-0.36;100.00;101144.41;1791441;80;21320;-63
2022/12/18 10:45:15;;;;;;;21.23;10.78;;;;;;;-0.56;100.00;101162.45;1791259;80;21045;-64
2022/12/18 10:47:49;;;;;;;23.03;12.43;;;;;;;-0.59;100.00;101155.92;1791246;80;21031;-63
2022/12/18 10:50:26;;;;;;;24.92;12.60;;;;;;;-0.51;100.00;101154.38;1791393;80;21190;-63
2022/12/18 10:52:58;;;;;;;26.77;13.13;;;;;;;-0.39;100.00;101165.05;1791541;80;21184;-63
2022/12/18 11:15:46;;;;;;;24.77;11.00;;;;;;;-3.18;100.00;101176.54;1813830;76;24843;-95
2022/12/18 11:18:37;;;;;;;20.70;10.30;;;;;;;-1.03;100.00;101173.76;1790602;78;20894;-93
2022/12/18 11:21:13;;;;;;;23.92;11.73;;;;;;;-0.87;100.00;101179.36;1755275;78;21073;-93
2022/12/18 11:23:53;;;;;;;21.93;11.47;;;;;;;-0.58;100.00;101181.81;1755375;78;20994;-94
2022/12/18 11:26:39;;;;;;;18.77;9.17;;;;;;;-0.40;100.00;101183.98;1755874;78;20926;-93
2022/12/18 11:29:28;;;;;;;18.33;9.73;;;;;;;-0.09;100.00;101201.54;1749222;80;20974;-96
2022/12/18 11:32:29;;;;;;;18.63;10.27;;;;;;;-0.17;100.00;101203.09;1743883;80;20949;-96
2022/12/18 11:35:20;;;;;;;22.03;10.80;;;;;;;-0.28;100.00;101204.98;1743121;79;21128;-96
2022/12/18 11:42:09;;;;;;;20.03;10.27;;;;;;;-0.10;100.00;101216.64;1714249;78;84006;-65
2022/12/18 11:45:01;;;;;;;20.27;10.23;;;;;;;0.05;100.00;101229.95;1694279;84;21585;-66
2022/12/18 11:47:43;;;;;;;17.87;8.97;;;;;;;-0.01;100.00;101230.67;1694135;84;21074;-66
2022/12/18 11:50:33;;;;;;;21.90;10.30;;;;;;;0.11;100.00;101241.73;1694198;84;21202;-65
2022/12/18 11:53:02;;;;;;;;;;;;;;;0.30;100.00;101247.34;1696908;84;21154;-65
2022/12/18 11:55:50;;;;;;;18.27;8.67;;;;;;;0.23;100.00;101246.75;1694779;84;20191;-65
2022/12/18 11:58:28;;;;;;;17.83;9.60;;;;;;;0.24;100.00;101254.99;1666325;86;21072;-65
2022/12/18 12:01:06;;;;;;;15.90;8.80;;;;;;;0.26;100.00;101241.66;1666000;86;22261;-66
2022/12/18 12:03:55;;;;;;;15.50;7.80;;;;;;;0.30;100.00;101254.72;1666268;85;21149;-66
2022/12/18 12:06:45;;;;;;;19.70;9.60;;;;;;;0.40;100.00;101242.83;1643110;86;21659;-65
2022/12/18 12:09:41;;;;;;;16.75;9.08;;;;;;;0.71;100.00;101246.95;1666643;85;21573;-66
2022/12/18 12:12:45;;;;;;;16.47;8.87;;;;;;;0.86;100.00;101258.08;1665906;86;21049;-65
2022/12/18 12:15:25;;;;;;;19.10;9.45;;;;;;;0.89;100.00;101265.91;1662909;86;21060;-66
2022/12/18 12:17:59;;;;;;;13.80;8.90;;;;;;;0.89;100.00;101260.72;1663145;86;21116;-65
2022/12/18 12:20:52;;;;;;;18.10;9.53;;;;;;;0.92;100.00;101264.70;1663023;86;21033;-66
2022/12/18 12:23:42;;;;;;;18.02;9.60;;;;;;;0.53;100.00;101275.06;1663225;86;21077;-65
2022/12/18 12:26:13;;;;;;;19.67;11.23;;;;;;;0.28;100.00;101277.13;1662927;86;21078;-67
2022/12/18 12:29:26;;;;;;;19.65;9.98;;;;;;;-0.07;100.00;101283.63;1627043;86;21084;-67
2022/12/18 12:32:14;;;;;;;23.23;10.60;;;;;;;0.29;100.00;101283.17;1663046;86;21379;-66
2022/12/18 12:35:09;;;;;;;23.23;10.90;;;;;;;0.26;100.00;101287.86;1662641;86;21568;-66
2022/12/18 12:37:47;;;;;;;18.00;9.10;;;;;;;0.42;100.00;101298.17;1662813;86;21076;-66
2022/12/18 12:40:18;;;;;;;20.80;10.60;;;;;;;0.73;100.00;101300.14;1662544;86;21085;-66
2022/12/18 12:45:43;;;;;;;51.13;18.57;;;;;;;0.97;100.00;101318.84;1676270;85;21264;-65
2022/12/18 12:48:52;;;;;;;32.97;14.50;;;;;;;0.89;100.00;101315.62;1676115;85;21108;-65
2022/12/18 12:51:26;;;;;;;19.13;10.37;;;;;;;0.59;100.00;101314.97;1617731;85;21068;-64
2022/12/18 12:53:54;;;;;;;16.60;8.70;;;;;;;0.97;100.00;101320.56;1675760;85;21569;-65
2022/12/18 12:56:21;;;;;;;14.77;8.37;;;;;;;0.82;100.00;101331.46;1682075;84;21104;-64
2022/12/18 12:59:21;;;;;;;15.13;8.33;;;;;;;0.75;100.00;101328.28;1703953;84;21156;-65
2022/12/18 13:02:38;;;;;;;14.10;8.25;;;;;;;0.95;100.00;101329.59;1672538;85;21583;-66
2022/12/18 13:05:51;;;;;;;13.77;7.73;;;;;;;0.87;100.00;101338.05;1694417;84;21061;-65
2022/12/18 13:08:28;;;;;;;16.70;8.27;;;;;;;0.43;100.00;101349.16;1672721;85;21145;-66
2022/12/18 13:12:55;;;;;;;16.53;7.97;;;;;;;-0.07;100.00;101359.13;1694580;84;21065;-65
2022/12/18 13:13:23;;;;;;;15.53;7.40;;;;;;;0.33;100.00;101360.15;1668524;85;21140;-65
2022/12/18 13:16:07;;;;;;;15.33;7.70;;;;;;;-0.36;100.00;101372.19;1694555;84;21160;-65
2022/12/18 13:18:34;;;;;;;13.43;7.17;;;;;;;0.24;100.00;101378.06;1672851;85;21039;-65
2022/12/18 13:21:06;;;;;;;14.37;7.13;;;;;;;-0.45;100.00;101378.40;1694416;84;21138;-65
2022/12/18 13:23:39;;;;;;;14.47;7.73;;;;;;;-0.56;100.00;101386.28;1694273;84;21117;-66
2022/12/18 13:26:20;;;;;;;13.10;6.90;;;;;;;-0.45;100.00;101377.11;1694525;83;21580;-65
2022/12/18 13:28:51;;;;;;;15.87;7.77;;;;;;;-0.32;97.45;101392.15;1672662;85;21125;-65
2022/12/18 13:31:43;;;;;;;14.73;8.35;;;;;;;0.24;95.47;101390.59;1694652;84;21042;-64
2022/12/18 13:34:18;;;;;;;13.68;8.03;;;;;;;0.04;96.80;101387.48;1672902;85;21055;-66
2022/12/18 13:36:45;;;;;;;16.07;7.72;;;;;;;0.01;94.94;101393.88;1691606;84;21541;-65
2022/12/18 13:39:22;;;;;;;13.43;7.62;;;;;;;0.20;94.87;101409.05;1694697;84;21166;-65
2022/12/18 13:41:51;;;;;;;11.97;7.30;;;;;;;0.16;94.11;101399.47;1674684;85;21054;-65
2022/12/18 13:44:34;;;;;;;16.07;9.47;;;;;;;0.48;92.59;101407.58;1678421;85;21054;-65
2022/12/18 13:47:03;;;;;;;19.20;10.07;;;;;;;0.61;93.34;101404.02;1678335;85;21065;-65
2022/12/18 13:49:41;;;;;;;15.33;8.43;;;;;;;1.09;90.95;101414.20;1678607;85;21046;-65
2022/12/18 13:52:31;;;;;;;16.70;8.50;;;;;;;0.96;91.22;101419.53;1678662;85;22241;-65
2022/12/18 13:54:58;;;;;;;19.97;11.93;;;;;;;0.98;92.70;101419.58;1678328;85;21066;-65
2022/12/18 17:26:26;;;;;;;27.37;12.37;;;;;;;-4.87;100.00;101781.63;1848203;76;23310;-96
2022/12/18 17:29:05;;;;;;;23.93;12.10;;;;;;;-3.12;100.00;101778.05;1736517;77;21041;-92
2022/12/18 17:31:52;;;;;;;25.77;13.18;;;;;;;-2.27;100.00;101779.58;1775997;78;21643;-94
2022/12/18 17:34:36;;;;;;;25.27;11.93;;;;;;;-1.45;100.00;101786.69;1755184;79;20986;-96
2022/12/18 17:37:14;;;;;;;25.00;12.57;;;;;;;-1.44;100.00;101796.23;1745174;79;20974;-96
2022/12/18 17:39:54;;;;;;;27.13;12.10;;;;;;;-1.18;100.00;101795.49;1776338;79;20950;-96
2022/12/18 17:42:37;;;;;;;24.33;11.93;;;;;;;-1.16;100.00;101800.73;1777930;79;21041;-94
2022/12/18 17:48:18;;;;;;;;;;;;;;;-0.75;100.00;101807.84;1751748;79;91054;-66
2022/12/18 17:50:44;;;;;;;25.20;11.43;;;;;;;-0.62;100.00;101802.67;1764125;80;20149;-66
2022/12/18 17:53:12;;;;;;;23.60;11.07;;;;;;;-0.44;100.00;101814.58;1745828;80;20986;-66
2022/12/18 17:55:38;;;;;;;23.57;10.70;;;;;;;-0.39;100.00;101819.01;1745357;80;21032;-65
2022/12/18 17:58:05;;;;;;;21.30;10.93;;;;;;;-1.16;100.00;101821.00;1755389;80;21750;-65
2022/12/18 18:00:32;;;;;;;25.17;11.27;;;;;;;-0.93;100.00;101817.10;1765341;80;21001;-66
2022/12/18 18:02:58;;;;;;;21.73;10.63;;;;;;;-0.84;100.00;101822.61;1749165;80;20977;-66
2022/12/18 18:05:25;;;;;;;22.63;10.30;;;;;;;-0.53;100.00;101829.78;1762406;80;21084;-66
2022/12/18 18:07:51;;;;;;;21.60;11.00;;;;;;;-0.67;100.00;101830.59;1746196;80;21044;-66
2022/12/18 18:10:18;;;;;;;20.27;11.70;;;;;;;-1.09;100.00;101840.21;1755321;80;21121;-67
2022/12/18 18:15:31;;;;;;;20.40;10.20;;;;;;;-1.14;100.00;101849.09;1745508;80;21068;-67
2022/12/18 18:17:57;;;;;;;17.23;8.97;;;;;;;-0.78;100.00;101850.39;1765588;80;21579;-67
2022/12/18 18:20:24;;;;;;;21.70;10.50;;;;;;;-0.92;100.00;101867.98;1736175;80;21026;-65
2022/12/18 18:22:51;;;;;;;21.37;11.03;;;;;;;-0.82;100.00;101874.41;1747084;80;21147;-67
2022/12/18 18:25:17;;;;;;;19.73;10.50;;;;;;;-0.41;100.00;101879.80;1783411;78;21151;-66
2022/12/18 18:27:44;;;;;;;17.83;8.90;;;;;;;-0.53;100.00;101872.48;1782470;79;21083;-66
2022/12/18 18:30:12;;;;;;;18.17;9.53;;;;;;;-0.84;100.00;101879.52;1778227;79;21088;-66
2022/12/18 18:32:39;;;;;;;19.23;10.67;;;;;;;-1.15;100.00;101882.62;1780371;79;21084;-66
2022/12/18 18:35:07;;;;;;;20.93;10.73;;;;;;;-1.06;100.00;101894.23;1803037;79;21444;-67
2022/12/18 18:37:34;;;;;;;18.83;10.33;;;;;;;-0.52;100.00;101896.66;1778445;79;21113;-67
2022/12/18 18:40:01;;;;;;;21.87;10.57;;;;;;;-0.79;100.00;101899.09;1798469;79;21101;-67
2022/12/18 18:42:28;;;;;;;17.60;9.20;;;;;;;-0.96;100.00;101907.09;1790718;79;21068;-67
2022/12/18 18:44:54;;;;;;;20.87;10.83;;;;;;;-1.53;100.00;101906.14;1798458;79;21023;-67
2022/12/18 18:47:21;;;;;;;24.00;11.27;;;;;;;-0.65;100.00;101905.23;1780106;79;21563;-67
2022/12/18 18:49:47;;;;;;;19.83;10.20;;;;;;;-1.18;100.00;101900.20;1795735;79;21623;-67
2022/12/18 18:52:14;;;;;;;19.53;10.70;;;;;;;-0.76;100.00;101906.58;1779481;79;21119;-66
2022/12/18 18:54:41;;;;;;;24.03;11.27;;;;;;;-0.50;100.00;101902.77;1796759;79;21089;-67
2022/12/18 18:57:09;;;;;;;19.57;10.40;;;;;;;-0.61;100.00;101902.78;1794576;79;21018;-67
2022/12/18 18:59:36;;;;;;;24.03;11.60;;;;;;;-0.52;100.00;101905.71;1781787;79;21195;-67
2022/12/18 19:02:04;;;;;;;17.10;9.43;;;;;;;-0.47;100.00;101912.80;1789829;78;21042;-66
2022/12/18 19:04:32;;;;;;;18.77;9.90;;;;;;;-0.39;100.00;101920.88;1803564;79;21561;-67
2022/12/18 19:06:59;;;;;;;23.27;11.57;;;;;;;-0.51;100.00;101923.86;1795508;79;21038;-66
2022/12/18 19:09:25;;;;;;;24.33;11.17;;;;;;;-0.67;100.00;101931.88;1796613;79;21557;-67
2022/12/18 20:24:09;;;;;;;24.43;11.70;;;;;;;-4.71;100.00;102069.94;1822700;76;26739;-90
2022/12/18 20:26:37;;;;;;;29.63;13.10;;;;;;;-2.79;100.00;102064.88;1754047;80;21616;-90
2022/12/18 20:29:04;;;;;;;30.93;12.90;;;;;;;-1.94;100.00;102067.98;1775506;80;21758;-90
2022/12/18 20:31:32;;;;;;;26.70;12.23;;;;;;;-1.79;100.00;102058.76;1810736;78;20970;-90
2022/12/18 20:34:01;;;;;;;29.70;12.57;;;;;;;-1.62;100.00;102071.11;1809106;78;21058;-89
2022/12/18 20:36:30;;;;;;;24.73;12.10;;;;;;;-1.56;100.00;102067.52;1792902;78;21377;-90
2022/12/18 20:38:57;;;;;;;27.13;12.20;;;;;;;-1.31;100.00;102079.80;1802023;78;21700;-91
2022/12/18 20:41:23;;;;;;;25.73;12.60;;;;;;;-1.41;100.00;102079.33;1800065;78;21062;-90
2022/12/18 20:47:06;;;;;;;24.70;10.77;;;;;;;-4.31;100.00;102102.12;1882415;74;22535;-89
2022/12/18 20:49:33;;;;;;;24.23;11.40;;;;;;;-1.83;100.00;102106.34;1860726;77;21003;-91
2022/12/18 20:55:19;;;;;;;23.50;11.13;;;;;;;-2.32;100.00;102119.16;1829863;77;22073;-90
2022/12/18 20:57:47;;;;;;;22.13;10.57;;;;;;;-1.15;100.00;102126.58;1762763;81;21065;-91
2022/12/18 21:00:16;;;;;;;19.53;9.77;;;;;;;-0.88;100.00;102129.42;1763378;80;21127;-90
2022/12/18 23:54:57;;;;;;;22.13;9.67;;;;;;;-2.81;89.80;102281.81;1651717;84;21081;-65
2022/12/18 23:57:24;;;;;;;18.70;10.20;;;;;;;-2.43;88.52;102288.95;1661186;85;21097;-65
2022/12/18 23:59:52;;;;;;;19.67;10.20;;;;;;;-2.28;87.76;102291.80;1670136;84;21086;-65
